sensor_id;sensor_type;location;lat;lon;timestamp;pressure;altitude;pressure_sealevel;temperature;humidity
69622;BME280;56841;55.964;37.674;2022-07-23T00:00:54;99460.81;;;17.83;92.94
69622;BME280;56841;55.964;37.674;2022-07-23T00:03:20;99459.38;;;17.80;92.85
69622;BME280;56841;55.964;37.674;2022-07-23T00:05:46;99461.06;;;17.74;93.99
69622;BME280;56841;55.964;37.674;2022-07-23T00:08:12;99468.69;;;17.71;94.38
69622;BME280;56841;55.964;37.674;2022-07-23T00:10:38;99467.03;;;17.70;96.54
69622;BME280;56841;55.964;37.674;2022-07-23T00:13:04;99471.78;;;17.68;96.31
69622;BME280;56841;55.964;37.674;2022-07-23T00:15:30;99463.16;;;17.66;95.18
69622;BME280;56841;55.964;37.674;2022-07-23T00:17:56;99463.16;;;17.66;95.79
69622;BME280;56841;55.964;37.674;2022-07-23T00:20:22;99459.88;;;17.64;95.72
69622;BME280;56841;55.964;37.674;2022-07-23T00:22:48;99476.75;;;17.64;95.86
69622;BME280;56841;55.964;37.674;2022-07-23T00:25:14;99464.03;;;17.60;95.87
69622;BME280;56841;55.964;37.674;2022-07-23T00:27:41;99471.44;;;17.58;95.87
69622;BME280;56841;55.964;37.674;2022-07-23T00:30:07;99474.31;;;17.56;95.29
69622;BME280;56841;55.964;37.674;2022-07-23T00:32:47;99467.13;;;17.57;95.10
69622;BME280;56841;55.964;37.674;2022-07-23T00:35:14;99470.03;;;17.55;95.49
69622;BME280;56841;55.964;37.674;2022-07-23T00:37:40;99472.91;;;17.53;95.69
69622;BME280;56841;55.964;37.674;2022-07-23T00:40:07;99469.66;;;17.51;96.33
69622;BME280;56841;55.964;37.674;2022-07-23T00:42:32;99473.56;;;17.49;97.20
69622;BME280;56841;55.964;37.674;2022-07-23T00:44:58;99469.06;;;17.43;98.14
69622;BME280;56841;55.964;37.674;2022-07-23T00:47:24;99467.06;;;17.38;98.70
69622;BME280;56841;55.964;37.674;2022-07-23T00:49:50;99465.25;;;17.32;99.02
69622;BME280;56841;55.964;37.674;2022-07-23T00:52:16;99468.34;;;17.29;99.33
69622;BME280;56841;55.964;37.674;2022-07-23T00:54:42;99472.06;;;17.28;99.33
69622;BME280;56841;55.964;37.674;2022-07-23T00:57:08;99478.44;;;17.27;99.57
69622;BME280;56841;55.964;37.674;2022-07-23T00:59:35;99484.19;;;17.24;100.00
69622;BME280;56841;55.964;37.674;2022-07-23T01:02:00;99475.78;;;17.20;100.00
69622;BME280;56841;55.964;37.674;2022-07-23T01:04:26;99478.88;;;17.17;100.00
69622;BME280;56841;55.964;37.674;2022-07-23T01:06:52;99486.66;;;17.19;99.96
69622;BME280;56841;55.964;37.674;2022-07-23T01:09:18;99482.78;;;17.15;100.00
69622;BME280;56841;55.964;37.674;2022-07-23T01:11:44;99487.94;;;17.16;100.00
69622;BME280;56841;55.964;37.674;2022-07-23T01:14:12;99480.56;;;17.12;100.00
69622;BME280;56841;55.964;37.674;2022-07-23T01:16:40;99483.63;;;17.09;100.00
69622;BME280;56841;55.964;37.674;2022-07-23T01:19:06;99480.38;;;17.07;100.00
69622;BME280;56841;55.964;37.674;2022-07-23T01:21:37;99479.34;;;17.08;100.00
69622;BME280;56841;55.964;37.674;2022-07-23T01:24:05;99475.63;;;17.09;100.00
69622;BME280;56841;55.964;37.674;2022-07-23T01:26:32;99477.50;;;17.08;100.00
69622;BME280;56841;55.964;37.674;2022-07-23T01:28:58;99480.16;;;17.08;100.00
69622;BME280;56841;55.964;37.674;2022-07-23T01:31:25;99473.59;;;17.11;100.00
69622;BME280;56841;55.964;37.674;2022-07-23T01:33:51;99474.81;;;17.08;100.00
69622;BME280;56841;55.964;37.674;2022-07-23T01:36:16;99474.44;;;17.04;100.00
69622;BME280;56841;55.964;37.674;2022-07-23T01:38:42;99474.03;;;17.01;100.00
69622;BME280;56841;55.964;37.674;2022-07-23T01:41:08;99472.63;;;16.92;100.00
69622;BME280;56841;55.964;37.674;2022-07-23T01:43:34;99469.34;;;16.96;100.00
69622;BME280;56841;55.964;37.674;2022-07-23T01:46:00;99464.84;;;16.97;100.00
69622;BME280;56841;55.964;37.674;2022-07-23T01:48:32;99465.22;;;17.00;100.00
69622;BME280;56841;55.964;37.674;2022-07-23T01:51:21;99465.00;;;17.02;100.00
69622;BME280;56841;55.964;37.674;2022-07-23T01:53:56;99469.31;;;17.03;100.00
69622;BME280;56841;55.964;37.674;2022-07-23T01:56:22;99472.38;;;17.07;100.00
69622;BME280;56841;55.964;37.674;2022-07-23T01:58:48;99473.19;;;17.07;100.00
69622;BME280;56841;55.964;37.674;2022-07-23T02:01:15;99470.31;;;17.09;100.00
69622;BME280;56841;55.964;37.674;2022-07-23T02:03:41;99478.94;;;17.11;100.00
69622;BME280;56841;55.964;37.674;2022-07-23T02:06:06;99473.34;;;17.12;100.00
69622;BME280;56841;55.964;37.674;2022-07-23T02:08:32;99478.06;;;17.17;100.00
69622;BME280;56841;55.964;37.674;2022-07-23T02:11:00;99476.00;;;17.19;100.00
69622;BME280;56841;55.964;37.674;2022-07-23T02:13:26;99476.00;;;17.19;100.00
69622;BME280;56841;55.964;37.674;2022-07-23T02:15:54;99474.53;;;17.23;100.00
69622;BME280;56841;55.964;37.674;2022-07-23T02:18:20;99477.38;;;17.28;100.00
69622;BME280;56841;55.964;37.674;2022-07-23T02:20:45;99469.34;;;17.35;100.00
69622;BME280;56841;55.964;37.674;2022-07-23T02:23:11;99469.13;;;17.36;100.00
69622;BME280;56841;55.964;37.674;2022-07-23T02:25:37;99470.34;;;17.40;100.00
69622;BME280;56841;55.964;37.674;2022-07-23T02:28:03;99479.13;;;17.47;100.00
69622;BME280;56841;55.964;37.674;2022-07-23T02:30:29;99475.19;;;17.50;100.00
69622;BME280;56841;55.964;37.674;2022-07-23T02:32:55;99479.28;;;17.52;100.00
69622;BME280;56841;55.964;37.674;2022-07-23T02:35:22;99474.31;;;17.56;99.90
69622;BME280;56841;55.964;37.674;2022-07-23T02:37:49;99471.59;;;17.63;99.52
69622;BME280;56841;55.964;37.674;2022-07-23T02:40:15;99472.81;;;17.67;99.25
69622;BME280;56841;55.964;37.674;2022-07-23T02:42:42;99470.94;;;17.67;99.09
69622;BME280;56841;55.964;37.674;2022-07-23T02:45:09;99471.31;;;17.77;98.75
69622;BME280;56841;55.964;37.674;2022-07-23T02:47:35;99468.81;;;17.83;98.57
69622;BME280;56841;55.964;37.674;2022-07-23T02:50:01;99471.44;;;17.89;98.30
69622;BME280;56841;55.964;37.674;2022-07-23T02:52:29;99471.38;;;17.96;97.25
69622;BME280;56841;55.964;37.674;2022-07-23T02:54:55;99472.34;;;18.02;96.65
69622;BME280;56841;55.964;37.674;2022-07-23T02:57:20;99471.47;;;18.08;96.24
69622;BME280;56841;55.964;37.674;2022-07-23T02:59:46;99475.13;;;18.13;95.77
69622;BME280;56841;55.964;37.674;2022-07-23T03:02:12;99472.97;;;18.22;95.68
69622;BME280;56841;55.964;37.674;2022-07-23T03:04:38;99482.19;;;18.26;95.64
69622;BME280;56841;55.964;37.674;2022-07-23T03:07:04;99484.44;;;18.29;95.90
69622;BME280;56841;55.964;37.674;2022-07-23T03:09:30;99483.53;;;18.35;95.86
69622;BME280;56841;55.964;37.674;2022-07-23T03:11:55;99478.56;;;18.39;95.57
69622;BME280;56841;55.964;37.674;2022-07-23T03:14:21;99479.69;;;18.50;95.34
69622;BME280;56841;55.964;37.674;2022-07-23T03:16:47;99480.44;;;18.57;94.64
69622;BME280;56841;55.964;37.674;2022-07-23T03:19:15;99478.72;;;18.62;94.52
69622;BME280;56841;55.964;37.674;2022-07-23T03:21:41;99482.34;;;18.68;93.37
69622;BME280;56841;55.964;37.674;2022-07-23T03:24:08;99491.16;;;18.75;92.33
69622;BME280;56841;55.964;37.674;2022-07-23T03:26:35;99491.06;;;18.82;92.33
69622;BME280;56841;55.964;37.674;2022-07-23T03:29:02;99496.56;;;18.87;91.63
69622;BME280;56841;55.964;37.674;2022-07-23T03:31:30;99486.22;;;18.90;90.82
69622;BME280;56841;55.964;37.674;2022-07-23T03:33:59;99488.81;;;18.97;90.37
69622;BME280;56841;55.964;37.674;2022-07-23T03:36:25;99491.66;;;19.02;89.91
69622;BME280;56841;55.964;37.674;2022-07-23T03:38:54;99483.28;;;19.10;89.67
69622;BME280;56841;55.964;37.674;2022-07-23T03:41:20;99493.69;;;19.18;88.85
69622;BME280;56841;55.964;37.674;2022-07-23T03:43:46;99491.38;;;19.22;89.21
69622;BME280;56841;55.964;37.674;2022-07-23T03:46:12;99492.09;;;19.29;88.57
69622;BME280;56841;55.964;37.674;2022-07-23T03:48:38;99490.06;;;19.43;87.90
69622;BME280;56841;55.964;37.674;2022-07-23T03:51:04;99491.59;;;19.51;87.75
69622;BME280;56841;55.964;37.674;2022-07-23T03:53:30;99485.31;;;19.57;87.24
69622;BME280;56841;55.964;37.674;2022-07-23T03:55:56;99488.50;;;19.65;86.70
69622;BME280;56841;55.964;37.674;2022-07-23T03:58:23;99492.72;;;19.73;86.72
69622;BME280;56841;55.964;37.674;2022-07-23T04:00:49;99492.38;;;19.81;86.72
69622;BME280;56841;55.964;37.674;2022-07-23T04:03:15;99491.81;;;19.91;86.06
69622;BME280;56841;55.964;37.674;2022-07-23T04:05:42;99494.94;;;20.00;86.12
69622;BME280;56841;55.964;37.674;2022-07-23T04:08:12;99492.75;;;20.08;85.41
69622;BME280;56841;55.964;37.674;2022-07-23T04:10:41;99489.97;;;20.15;84.19
69622;BME280;56841;55.964;37.674;2022-07-23T04:13:08;99489.59;;;20.23;84.37
69622;BME280;56841;55.964;37.674;2022-07-23T04:15:34;99493.22;;;20.29;84.05
69622;BME280;56841;55.964;37.674;2022-07-23T04:18:00;99490.19;;;20.37;83.57
69622;BME280;56841;55.964;37.674;2022-07-23T04:20:35;99487.75;;;20.35;83.40
69622;BME280;56841;55.964;37.674;2022-07-23T04:23:02;99491.72;;;20.45;83.42
69622;BME280;56841;55.964;37.674;2022-07-23T04:25:28;99494.16;;;20.58;82.75
69622;BME280;56841;55.964;37.674;2022-07-23T04:27:54;99488.44;;;20.66;82.22
69622;BME280;56841;55.964;37.674;2022-07-23T04:30:20;99492.38;;;20.75;82.04
69622;BME280;56841;55.964;37.674;2022-07-23T04:32:46;99496.09;;;20.86;81.95
69622;BME280;56841;55.964;37.674;2022-07-23T04:35:18;99498.31;;;20.89;81.18
69622;BME280;56841;55.964;37.674;2022-07-23T04:37:44;99496.03;;;20.98;81.42
69622;BME280;56841;55.964;37.674;2022-07-23T04:40:12;99498.91;;;21.08;80.76
69622;BME280;56841;55.964;37.674;2022-07-23T04:42:38;99495.38;;;21.19;79.96
69622;BME280;56841;55.964;37.674;2022-07-23T04:45:04;99501.66;;;21.25;78.70
69622;BME280;56841;55.964;37.674;2022-07-23T04:47:30;99493.56;;;21.37;79.01
69622;BME280;56841;55.964;37.674;2022-07-23T04:49:58;99489.69;;;21.44;79.06
69622;BME280;56841;55.964;37.674;2022-07-23T04:52:24;99497.13;;;21.54;77.92
69622;BME280;56841;55.964;37.674;2022-07-23T04:54:50;99493.44;;;21.60;78.00
69622;BME280;56841;55.964;37.674;2022-07-23T04:57:16;99488.25;;;21.70;78.28
69622;BME280;56841;55.964;37.674;2022-07-23T04:59:42;99490.53;;;21.79;77.04
69622;BME280;56841;55.964;37.674;2022-07-23T05:02:09;99492.91;;;21.92;76.95
69622;BME280;56841;55.964;37.674;2022-07-23T05:04:35;99490.38;;;22.02;76.55
69622;BME280;56841;55.964;37.674;2022-07-23T05:07:02;99494.75;;;22.08;76.38
69622;BME280;56841;55.964;37.674;2022-07-23T05:09:28;99487.13;;;22.17;75.80
69622;BME280;56841;55.964;37.674;2022-07-23T05:11:54;99483.78;;;22.27;73.71
69622;BME280;56841;55.964;37.674;2022-07-23T05:14:21;99490.13;;;22.37;73.33
69622;BME280;56841;55.964;37.674;2022-07-23T05:16:47;99481.06;;;22.43;72.38
69622;BME280;56841;55.964;37.674;2022-07-23T05:19:19;99484.44;;;22.56;71.99
69622;BME280;56841;55.964;37.674;2022-07-23T05:21:46;99472.34;;;22.58;70.42
69622;BME280;56841;55.964;37.674;2022-07-23T05:24:12;99481.31;;;22.64;70.42
69622;BME280;56841;55.964;37.674;2022-07-23T05:26:38;99481.13;;;22.70;71.56
69622;BME280;56841;55.964;37.674;2022-07-23T05:29:05;99479.63;;;22.80;70.35
69622;BME280;56841;55.964;37.674;2022-07-23T05:31:30;99485.13;;;22.90;69.34
69622;BME280;56841;55.964;37.674;2022-07-23T05:33:56;99480.38;;;22.97;68.09
69622;BME280;56841;55.964;37.674;2022-07-23T05:36:23;99475.38;;;23.06;68.27
69622;BME280;56841;55.964;37.674;2022-07-23T05:38:52;99477.59;;;23.14;69.14
69622;BME280;56841;55.964;37.674;2022-07-23T05:41:18;99476.38;;;23.22;67.77
69622;BME280;56841;55.964;37.674;2022-07-23T05:43:43;99472.94;;;23.31;67.85
69622;BME280;56841;55.964;37.674;2022-07-23T05:46:11;99478.41;;;23.41;67.80
69622;BME280;56841;55.964;37.674;2022-07-23T05:48:40;99473.41;;;23.55;67.07
69622;BME280;56841;55.964;37.674;2022-07-23T05:51:13;99479.38;;;23.57;65.72
69622;BME280;56841;55.964;37.674;2022-07-23T05:53:39;99473.50;;;23.65;66.26
69622;BME280;56841;55.964;37.674;2022-07-23T05:56:12;99472.53;;;23.72;65.25
69622;BME280;56841;55.964;37.674;2022-07-23T05:58:39;99469.38;;;23.80;65.91
69622;BME280;56841;55.964;37.674;2022-07-23T06:01:04;99469.44;;;23.90;64.02
69622;BME280;56841;55.964;37.674;2022-07-23T06:03:38;99474.91;;;24.00;63.41
69622;BME280;56841;55.964;37.674;2022-07-23T06:06:06;99472.50;;;24.04;62.00
69622;BME280;56841;55.964;37.674;2022-07-23T06:08:32;99465.25;;;24.09;62.36
69622;BME280;56841;55.964;37.674;2022-07-23T06:10:59;99471.78;;;24.19;60.90
69622;BME280;56841;55.964;37.674;2022-07-23T06:13:24;99465.34;;;24.25;60.60
69622;BME280;56841;55.964;37.674;2022-07-23T06:15:50;99467.25;;;24.29;60.48
69622;BME280;56841;55.964;37.674;2022-07-23T06:18:16;99463.53;;;24.35;60.25
69622;BME280;56841;55.964;37.674;2022-07-23T06:20:43;99459.28;;;24.45;60.57
69622;BME280;56841;55.964;37.674;2022-07-23T06:23:10;99456.03;;;24.48;59.62
69622;BME280;56841;55.964;37.674;2022-07-23T06:25:38;99464.44;;;24.51;58.81
69622;BME280;56841;55.964;37.674;2022-07-23T06:28:04;99473.66;;;24.61;58.82
69622;BME280;56841;55.964;37.674;2022-07-23T06:30:30;99467.72;;;24.64;58.62
69622;BME280;56841;55.964;37.674;2022-07-23T06:32:56;99467.19;;;24.62;59.34
69622;BME280;56841;55.964;37.674;2022-07-23T06:35:22;99461.25;;;24.65;60.10
69622;BME280;56841;55.964;37.674;2022-07-23T06:37:48;99460.75;;;24.73;58.53
69622;BME280;56841;55.964;37.674;2022-07-23T06:40:14;99463.72;;;24.76;57.97
69622;BME280;56841;55.964;37.674;2022-07-23T06:42:40;99461.28;;;24.75;57.10
69622;BME280;56841;55.964;37.674;2022-07-23T06:45:07;99460.75;;;24.78;58.23
69622;BME280;56841;55.964;37.674;2022-07-23T06:47:35;99459.41;;;24.80;57.46
69622;BME280;56841;55.964;37.674;2022-07-23T06:50:01;99464.56;;;24.92;57.84
69622;BME280;56841;55.964;37.674;2022-07-23T06:52:28;99457.03;;;24.89;56.66
69622;BME280;56841;55.964;37.674;2022-07-23T06:54:54;99456.50;;;24.97;56.98
69622;BME280;56841;55.964;37.674;2022-07-23T06:57:20;99454.09;;;25.06;58.39
69622;BME280;56841;55.964;37.674;2022-07-23T06:59:46;99454.41;;;25.15;57.94
69622;BME280;56841;55.964;37.674;2022-07-23T07:02:12;99455.25;;;25.20;57.18
69622;BME280;56841;55.964;37.674;2022-07-23T07:04:38;99456.31;;;25.19;55.82
69622;BME280;56841;55.964;37.674;2022-07-23T07:07:04;99456.03;;;25.26;55.61
69622;BME280;56841;55.964;37.674;2022-07-23T07:09:30;99458.25;;;25.34;55.31
69622;BME280;56841;55.964;37.674;2022-07-23T07:11:56;99464.19;;;25.41;55.20
69622;BME280;56841;55.964;37.674;2022-07-23T07:14:22;99451.75;;;25.45;55.66
69622;BME280;56841;55.964;37.674;2022-07-23T07:16:48;99457.69;;;25.52;55.79
69622;BME280;56841;55.964;37.674;2022-07-23T07:19:13;99453.38;;;25.62;55.96
69622;BME280;56841;55.964;37.674;2022-07-23T07:21:39;99450.13;;;25.70;55.10
69622;BME280;56841;55.964;37.674;2022-07-23T07:24:05;99457.47;;;25.80;55.72
69622;BME280;56841;55.964;37.674;2022-07-23T07:26:32;99448.00;;;25.82;54.03
69622;BME280;56841;55.964;37.674;2022-07-23T07:28:58;99455.56;;;25.85;52.70
69622;BME280;56841;55.964;37.674;2022-07-23T07:31:24;99445.81;;;25.84;53.21
69622;BME280;56841;55.964;37.674;2022-07-23T07:33:50;99453.13;;;25.84;52.87
69622;BME280;56841;55.964;37.674;2022-07-23T07:36:16;99456.63;;;25.84;52.38
69622;BME280;56841;55.964;37.674;2022-07-23T07:38:41;99449.34;;;25.90;52.28
69622;BME280;56841;55.964;37.674;2022-07-23T07:41:07;99447.97;;;25.97;52.66
69622;BME280;56841;55.964;37.674;2022-07-23T07:43:36;99452.06;;;25.95;52.22
69622;BME280;56841;55.964;37.674;2022-07-23T07:46:03;99444.47;;;26.02;52.25
69622;BME280;56841;55.964;37.674;2022-07-23T07:48:29;99445.78;;;26.10;52.99
69622;BME280;56841;55.964;37.674;2022-07-23T07:50:55;99452.53;;;26.22;53.28
69622;BME280;56841;55.964;37.674;2022-07-23T07:53:21;99450.88;;;26.32;53.11
69622;BME280;56841;55.964;37.674;2022-07-23T07:55:47;99464.41;;;26.37;52.60
69622;BME280;56841;55.964;37.674;2022-07-23T07:58:13;99451.66;;;26.48;52.64
69622;BME280;56841;55.964;37.674;2022-07-23T08:00:39;99460.88;;;26.31;52.59
69622;BME280;56841;55.964;37.674;2022-07-23T08:03:04;99460.38;;;26.29;52.65
69622;BME280;56841;55.964;37.674;2022-07-23T08:05:30;99461.19;;;26.14;53.28
69622;BME280;56841;55.964;37.674;2022-07-23T08:07:57;99453.91;;;26.10;51.31
69622;BME280;56841;55.964;37.674;2022-07-23T08:10:25;99447.97;;;26.03;52.05
69622;BME280;56841;55.964;37.674;2022-07-23T08:12:53;99439.22;;;26.31;52.62
69622;BME280;56841;55.964;37.674;2022-07-23T08:15:21;99447.88;;;26.43;52.93
69622;BME280;56841;55.964;37.674;2022-07-23T08:17:48;99446.50;;;26.51;51.27
69622;BME280;56841;55.964;37.674;2022-07-23T08:20:16;99443.25;;;26.49;50.35
69622;BME280;56841;55.964;37.674;2022-07-23T08:22:59;99446.84;;;26.29;49.41
69622;BME280;56841;55.964;37.674;2022-07-23T08:25:30;99443.56;;;26.32;50.13
69622;BME280;56841;55.964;37.674;2022-07-23T08:27:57;99443.50;;;26.53;49.78
69622;BME280;56841;55.964;37.674;2022-07-23T08:30:24;99443.16;;;26.69;49.46
69622;BME280;56841;55.964;37.674;2022-07-23T08:33:03;99434.19;;;26.84;49.52
69622;BME280;56841;55.964;37.674;2022-07-23T08:35:37;99442.31;;;26.79;49.96
69622;BME280;56841;55.964;37.674;2022-07-23T08:38:08;99435.13;;;27.04;49.36
69622;BME280;56841;55.964;37.674;2022-07-23T08:40:36;99431.44;;;26.89;49.59
69622;BME280;56841;55.964;37.674;2022-07-23T08:43:08;99432.97;;;27.01;48.58
69622;BME280;56841;55.964;37.674;2022-07-23T08:45:39;99440.25;;;27.15;49.13
69622;BME280;56841;55.964;37.674;2022-07-23T08:48:11;99434.69;;;27.36;48.46
69622;BME280;56841;55.964;37.674;2022-07-23T08:50:38;99434.38;;;27.37;47.33
69622;BME280;56841;55.964;37.674;2022-07-23T08:53:08;99431.16;;;27.35;47.34
69622;BME280;56841;55.964;37.674;2022-07-23T08:55:34;99425.59;;;27.51;47.79
69622;BME280;56841;55.964;37.674;2022-07-23T08:58:00;99432.97;;;27.45;47.43
69622;BME280;56841;55.964;37.674;2022-07-23T09:00:26;99427.38;;;27.31;47.87
69622;BME280;56841;55.964;37.674;2022-07-23T09:02:52;99423.53;;;27.37;47.74
69622;BME280;56841;55.964;37.674;2022-07-23T09:05:20;99427.91;;;27.33;47.00
69622;BME280;56841;55.964;37.674;2022-07-23T09:10:30;99417.00;;;27.78;45.98
69622;BME280;56841;55.964;37.674;2022-07-23T09:12:56;99422.25;;;27.64;45.52
69622;BME280;56841;55.964;37.674;2022-07-23T09:15:22;99418.09;;;27.72;45.80
69622;BME280;56841;55.964;37.674;2022-07-23T09:17:48;99419.03;;;27.91;44.50
69622;BME280;56841;55.964;37.674;2022-07-23T09:20:15;99408.97;;;27.97;43.94
69622;BME280;56841;55.964;37.674;2022-07-23T09:22:45;99416.22;;;28.01;44.11
69622;BME280;56841;55.964;37.674;2022-07-23T09:25:17;99419.59;;;28.17;43.98
69622;BME280;56841;55.964;37.674;2022-07-23T09:27:58;99415.59;;;28.33;42.37
69622;BME280;56841;55.964;37.674;2022-07-23T09:30:27;99415.31;;;28.35;43.33
69622;BME280;56841;55.964;37.674;2022-07-23T09:33:11;99412.84;;;28.39;42.91
69622;BME280;56841;55.964;37.674;2022-07-23T09:35:52;99413.44;;;28.54;43.18
69622;BME280;56841;55.964;37.674;2022-07-23T09:38:19;99412.53;;;28.40;44.15
69622;BME280;56841;55.964;37.674;2022-07-23T09:40:46;99411.75;;;28.40;43.64
69622;BME280;56841;55.964;37.674;2022-07-23T09:43:26;99416.47;;;28.53;42.89
69622;BME280;56841;55.964;37.674;2022-07-23T09:45:53;99421.69;;;28.68;43.38
69622;BME280;56841;55.964;37.674;2022-07-23T09:48:39;99416.13;;;28.78;43.31
69622;BME280;56841;55.964;37.674;2022-07-23T09:51:05;99411.34;;;28.70;43.21
69622;BME280;56841;55.964;37.674;2022-07-23T09:53:31;99409.31;;;28.62;43.83
69622;BME280;56841;55.964;37.674;2022-07-23T09:55:58;99407.25;;;28.73;44.23
69622;BME280;56841;55.964;37.674;2022-07-23T09:58:26;99406.00;;;28.84;42.71
69622;BME280;56841;55.964;37.674;2022-07-23T10:00:55;99406.53;;;28.86;42.09
69622;BME280;56841;55.964;37.674;2022-07-23T10:03:23;99399.59;;;28.94;42.71
69622;BME280;56841;55.964;37.674;2022-07-23T10:06:09;99401.09;;;29.05;41.88
69622;BME280;56841;55.964;37.674;2022-07-23T10:08:56;99398.81;;;28.93;42.14
69622;BME280;56841;55.964;37.674;2022-07-23T10:11:56;99388.66;;;28.61;42.18
69622;BME280;56841;55.964;37.674;2022-07-23T10:14:44;99382.34;;;28.85;42.01
69622;BME280;56841;55.964;37.674;2022-07-23T10:17:11;99390.81;;;28.83;42.16
69622;BME280;56841;55.964;37.674;2022-07-23T10:19:37;99385.78;;;28.28;42.81
69622;BME280;56841;55.964;37.674;2022-07-23T10:22:06;99385.03;;;28.47;42.71
69622;BME280;56841;55.964;37.674;2022-07-23T10:35:49;99367.91;;;29.08;41.11
69622;BME280;56841;55.964;37.674;2022-07-23T10:38:20;99364.81;;;28.96;40.89
69622;BME280;56841;55.964;37.674;2022-07-23T10:41:00;99362.47;;;29.08;40.82
69622;BME280;56841;55.964;37.674;2022-07-23T10:43:27;99367.28;;;28.92;41.02
69622;BME280;56841;55.964;37.674;2022-07-23T10:45:53;99364.19;;;28.99;40.80
69622;BME280;56841;55.964;37.674;2022-07-23T10:48:25;99357.41;;;29.01;41.68
69622;BME280;56841;55.964;37.674;2022-07-23T10:51:15;99352.59;;;29.12;41.22
69622;BME280;56841;55.964;37.674;2022-07-23T10:53:58;99350.75;;;28.89;41.07
69622;BME280;56841;55.964;37.674;2022-07-23T10:59:24;99355.28;;;29.31;40.63
69622;BME280;56841;55.964;37.674;2022-07-23T11:01:50;99347.75;;;29.42;40.37
69622;BME280;56841;55.964;37.674;2022-07-23T11:04:17;99341.81;;;29.40;40.19
69622;BME280;56841;55.964;37.674;2022-07-23T11:09:39;99337.63;;;29.47;40.08
69622;BME280;56841;55.964;37.674;2022-07-23T11:17:32;99331.69;;;29.26;40.51
69622;BME280;56841;55.964;37.674;2022-07-23T11:25:00;99332.03;;;29.39;40.11
69622;BME280;56841;55.964;37.674;2022-07-23T11:27:44;99340.22;;;29.99;39.08
69622;BME280;56841;55.964;37.674;2022-07-23T11:35:39;99331.97;;;30.54;37.17
69622;BME280;56841;55.964;37.674;2022-07-23T11:38:22;99331.81;;;30.37;37.43
69622;BME280;56841;55.964;37.674;2022-07-23T11:40:51;99333.56;;;30.19;37.74
69622;BME280;56841;55.964;37.674;2022-07-23T11:43:18;99329.41;;;29.94;38.24
69622;BME280;56841;55.964;37.674;2022-07-23T11:45:49;99331.00;;;29.67;38.21
69622;BME280;56841;55.964;37.674;2022-07-23T11:48:25;99327.41;;;29.72;38.63
69622;BME280;56841;55.964;37.674;2022-07-23T11:50:52;99315.50;;;29.95;38.52
69622;BME280;56841;55.964;37.674;2022-07-23T11:55:48;99314.09;;;30.62;37.26
69622;BME280;56841;55.964;37.674;2022-07-23T11:58:14;99316.13;;;32.17;35.04
69622;BME280;56841;55.964;37.674;2022-07-23T12:00:41;99315.72;;;32.50;34.54
69622;BME280;56841;55.964;37.674;2022-07-23T12:03:07;99306.72;;;32.67;34.23
69622;BME280;56841;55.964;37.674;2022-07-23T12:05:35;99303.00;;;33.23;34.00
69622;BME280;56841;55.964;37.674;2022-07-23T12:08:04;99295.63;;;32.63;34.59
69622;BME280;56841;55.964;37.674;2022-07-23T12:10:44;99299.97;;;32.47;34.71
69622;BME280;56841;55.964;37.674;2022-07-23T12:13:20;99294.91;;;33.74;33.35
69622;BME280;56841;55.964;37.674;2022-07-23T12:15:52;99298.56;;;35.00;31.07
69622;BME280;56841;55.964;37.674;2022-07-23T12:18:23;99303.66;;;35.93;29.64
69622;BME280;56841;55.964;37.674;2022-07-23T12:20:55;99294.00;;;36.36;29.14
69622;BME280;56841;55.964;37.674;2022-07-23T12:23:24;99284.88;;;35.46;29.86
69622;BME280;56841;55.964;37.674;2022-07-23T12:25:51;99281.34;;;36.87;28.61
69622;BME280;56841;55.964;37.674;2022-07-23T12:28:19;99284.91;;;37.63;28.14
69622;BME280;56841;55.964;37.674;2022-07-23T12:30:49;99283.25;;;38.45;26.47
69622;BME280;56841;55.964;37.674;2022-07-23T12:33:30;99283.19;;;38.61;26.23
69622;BME280;56841;55.964;37.674;2022-07-23T12:35:58;99284.66;;;38.55;26.16
69622;BME280;56841;55.964;37.674;2022-07-23T12:38:26;99278.16;;;39.74;25.32
69622;BME280;56841;55.964;37.674;2022-07-23T12:40:54;99275.97;;;40.44;24.04
69622;BME280;56841;55.964;37.674;2022-07-23T12:43:29;99275.84;;;40.07;24.39
69622;BME280;56841;55.964;37.674;2022-07-23T12:45:56;99269.50;;;40.02;24.41
69622;BME280;56841;55.964;37.674;2022-07-23T12:51:02;99257.63;;;40.59;23.74
69622;BME280;56841;55.964;37.674;2022-07-23T12:58:46;99257.34;;;41.53;22.91
69622;BME280;56841;55.964;37.674;2022-07-23T13:03:57;99247.72;;;41.39;23.12
69622;BME280;56841;55.964;37.674;2022-07-23T13:06:24;99242.97;;;40.95;23.30
69622;BME280;56841;55.964;37.674;2022-07-23T13:08:49;99237.16;;;40.67;23.77
69622;BME280;56841;55.964;37.674;2022-07-23T13:11:15;99249.53;;;40.80;23.92
69622;BME280;56841;55.964;37.674;2022-07-23T13:13:41;99237.28;;;40.81;23.76
69622;BME280;56841;55.964;37.674;2022-07-23T13:16:07;99235.28;;;40.78;24.07
69622;BME280;56841;55.964;37.674;2022-07-23T13:18:33;99238.41;;;40.73;23.66
69622;BME280;56841;55.964;37.674;2022-07-23T13:20:59;99234.97;;;40.87;23.85
69622;BME280;56841;55.964;37.674;2022-07-23T13:23:26;99236.94;;;40.83;23.60
69622;BME280;56841;55.964;37.674;2022-07-23T13:25:52;99230.56;;;40.82;23.34
69622;BME280;56841;55.964;37.674;2022-07-23T13:28:20;99234.22;;;40.90;23.83
69622;BME280;56841;55.964;37.674;2022-07-23T13:30:47;99222.31;;;39.39;24.93
69622;BME280;56841;55.964;37.674;2022-07-23T13:33:16;99218.03;;;37.98;26.75
69622;BME280;56841;55.964;37.674;2022-07-23T13:35:42;99224.06;;;37.21;27.85
69622;BME280;56841;55.964;37.674;2022-07-23T13:38:08;99225.34;;;36.80;28.15
69622;BME280;56841;55.964;37.674;2022-07-23T13:40:37;99216.94;;;36.60;28.28